Time;durP1;ratioP1;P1;durP2;ratioP2;P2;SDS_P1;SDS_P2;PMS_P1;PMS_P2;Temp;Humidity;BMP_temperature;BMP_pressure;BME280_temperature;BME280_humidity;BME280_pressure;Samples;Min_cycle;Max_cycle;Signal;HPM_P1;HPM_P2
2023/06/20 00:02:09;;;;;;;23.27;17.70;;;;;;;30.27;82.70;97435.06;4909364;29;20051;-68
2023/06/20 00:04:38;;;;;;;25.65;18.48;;;;;;;30.26;82.86;97425.28;4926507;28;20055;-69
2023/06/20 00:07:08;;;;;;;27.10;17.95;;;;;;;30.28;82.96;97433.91;4920048;29;20461;-69
2023/06/20 00:09:38;;;;;;;22.90;17.98;;;;;;;30.25;83.10;97426.44;4920056;28;20051;-68
2023/06/20 00:12:07;;;;;;;33.22;18.70;;;;;;;30.27;83.03;97435.06;4917715;28;20074;-69
2023/06/20 00:14:39;;;;;;;22.67;18.30;;;;;;;30.27;83.20;97435.06;4919764;28;20134;-69
2023/06/20 00:17:08;;;;;;;23.95;18.13;;;;;;;30.27;83.66;97437.03;4919398;28;20051;-69
2023/06/20 00:19:39;;;;;;;26.73;19.33;;;;;;;30.27;83.41;97447.94;4919704;28;20456;-69
2023/06/20 00:22:08;;;;;;;22.67;18.00;;;;;;;30.25;83.56;97451.03;4918336;28;20079;-68
2023/06/20 00:24:38;;;;;;;25.67;17.38;;;;;;;30.27;83.44;97448.72;4920018;29;20060;-69
2023/06/20 00:27:07;;;;;;;22.05;18.10;;;;;;;30.28;83.13;97450.31;4918267;28;20396;-68
2023/06/20 00:29:37;;;;;;;24.88;18.13;;;;;;;30.31;83.42;97454.28;4919504;28;20043;-69
2023/06/20 00:32:06;;;;;;;25.38;16.48;;;;;;;30.31;83.90;97449.63;4917190;28;20079;-69
2023/06/20 00:34:36;;;;;;;26.30;17.35;;;;;;;30.32;83.54;97453.91;4905708;29;20438;-68
2023/06/20 00:37:06;;;;;;;25.10;18.40;;;;;;;30.33;83.37;97447.31;4917332;29;20159;-69
2023/06/20 00:39:35;;;;;;;30.80;18.58;;;;;;;30.34;83.05;97457.13;4935829;28;20055;-68
2023/06/20 00:42:17;;;;;;;26.55;19.75;;;;;;;30.37;82.53;97461.06;4916849;28;20047;-68
2023/06/20 00:44:50;;;;;;;29.02;18.85;;;;;;;30.42;83.42;97468.22;4934721;28;20138;-69
2023/06/20 00:47:21;;;;;;;25.50;18.35;;;;;;;30.42;83.30;97471.75;4919684;28;20052;-69
2023/06/20 00:49:52;;;;;;;29.35;18.23;;;;;;;30.49;83.17;97473.91;4932515;28;20055;-69
2023/06/20 00:52:22;;;;;;;27.95;18.08;;;;;;;30.46;83.33;97474.59;4955906;28;20244;-68
2023/06/20 00:54:52;;;;;;;27.58;18.42;;;;;;;30.51;83.16;97477.84;4946507;28;20039;-69
2023/06/20 00:57:21;;;;;;;23.98;18.52;;;;;;;30.56;83.25;97485.00;4940333;28;22705;-69
2023/06/20 00:59:50;;;;;;;21.15;16.75;;;;;;;30.58;82.95;97485.47;4957430;28;20499;-69
2023/06/20 01:02:21;;;;;;;23.52;16.52;;;;;;;30.62;82.96;97478.94;4946083;28;20058;-68
2023/06/20 01:04:51;;;;;;;29.50;19.15;;;;;;;30.67;83.04;97486.84;4945844;28;20134;-69
2023/06/20 01:07:29;;;;;;;22.42;17.45;;;;;;;30.72;83.01;97488.53;4912693;28;20054;-69
2023/06/20 01:10:25;;;;;;;24.98;17.40;;;;;;;30.76;81.98;97494.88;4945425;28;20057;-68
2023/06/20 01:13:03;;;;;;;24.75;16.60;;;;;;;30.77;80.61;97493.72;4958977;28;20058;-69
2023/06/20 01:15:53;;;;;;;31.40;15.50;;;;;;;30.84;80.73;97498.59;4941168;28;21416;-69
2023/06/20 01:18:47;;;;;;;21.58;13.73;;;;;;;30.87;79.05;97495.94;4930137;28;20074;-68
2023/06/20 01:21:20;;;;;;;;;;;;;;;30.93;77.75;97493.72;4941513;28;20113;-69
2023/06/20 01:24:34;;;;;;;19.67;12.50;;;;;;;31.00;77.70;97497.44;4959768;28;21790;-69
2023/06/20 01:27:16;;;;;;;18.98;11.80;;;;;;;31.07;76.60;97488.63;4938711;28;20109;-68
2023/06/20 01:29:59;;;;;;;23.17;10.95;;;;;;;31.13;76.87;97501.66;4942375;28;20667;-70
2023/06/20 01:32:33;;;;;;;23.58;11.70;;;;;;;31.18;75.79;97509.59;4940787;28;20788;-69
2023/06/20 01:35:10;;;;;;;19.88;10.93;;;;;;;31.31;75.72;97515.75;4940881;28;20050;-69
2023/06/20 01:37:41;;;;;;;19.05;11.80;;;;;;;31.39;75.29;97511.22;4941213;28;20062;-69
2023/06/20 01:40:15;;;;;;;22.42;10.88;;;;;;;31.44;74.94;97516.41;4921345;28;20053;-68
2023/06/20 01:42:47;;;;;;;24.95;10.95;;;;;;;31.49;74.42;97511.47;4925787;28;20120;-69
2023/06/20 01:45:21;;;;;;;17.42;9.90;;;;;;;31.67;73.85;97513.81;4946633;28;20121;-70
2023/06/20 01:47:54;;;;;;;16.60;10.40;;;;;;;31.87;72.33;97518.94;4941894;28;20055;-68
2023/06/20 01:50:27;;;;;;;16.40;10.05;;;;;;;32.04;71.04;97523.97;4941450;28;20051;-69
2023/06/20 01:52:59;;;;;;;20.17;9.83;;;;;;;32.22;68.57;97524.34;4942654;28;20057;-69
2023/06/20 01:55:31;;;;;;;22.08;9.90;;;;;;;32.43;68.16;97518.50;4940918;28;20114;-69
2023/06/20 01:58:02;;;;;;;20.70;9.95;;;;;;;32.56;67.71;97527.31;4942084;28;20062;-70
2023/06/20 02:00:32;;;;;;;18.50;8.95;;;;;;;33.14;67.19;97528.75;4934781;28;20054;-68
2023/06/20 02:03:04;;;;;;;17.90;8.95;;;;;;;33.59;64.29;97527.81;4919218;28;20079;-68
2023/06/20 02:05:35;;;;;;;18.17;7.72;;;;;;;33.94;63.90;97535.78;4943346;28;20546;-67
2023/06/20 02:08:06;;;;;;;13.73;8.68;;;;;;;34.21;62.80;97539.28;4949389;28;20457;-68
2023/06/20 02:10:36;;;;;;;19.13;8.63;;;;;;;34.37;60.84;97534.34;4945892;28;20096;-68
2023/06/20 02:13:07;;;;;;;20.23;9.48;;;;;;;34.54;61.37;97541.97;4944559;28;20054;-69
2023/06/20 02:15:37;;;;;;;18.00;9.52;;;;;;;34.71;59.59;97543.34;4961521;28;20684;-69
2023/06/20 02:18:07;;;;;;;24.83;10.95;;;;;;;34.45;59.12;97547.00;4960892;28;20074;-68
2023/06/20 02:20:37;;;;;;;16.50;10.00;;;;;;;34.39;59.46;97533.97;4933223;28;20513;-68
2023/06/20 02:23:09;;;;;;;22.08;10.98;;;;;;;34.54;59.89;97536.47;4948635;28;20050;-69
2023/06/20 02:25:44;;;;;;;23.02;11.60;;;;;;;34.66;58.82;97535.44;4945856;28;20059;-68
2023/06/20 02:28:15;;;;;;;21.77;11.25;;;;;;;34.84;59.56;97533.63;4949724;28;20208;-68
2023/06/20 02:30:48;;;;;;;22.77;11.02;;;;;;;35.16;59.11;97533.91;4934792;28;20046;-70
2023/06/20 02:33:23;;;;;;;28.15;11.75;;;;;;;35.27;57.78;97529.28;4943723;28;20054;-68
2023/06/20 02:35:53;;;;;;;21.65;11.98;;;;;;;35.49;57.29;97544.00;4917331;28;20055;-69
2023/06/20 02:38:23;;;;;;;25.30;12.05;;;;;;;35.56;57.15;97538.50;4934348;28;20144;-69
2023/06/20 02:40:53;;;;;;;22.30;11.95;;;;;;;36.06;56.01;97536.03;4960277;28;20050;-68
2023/06/20 02:43:23;;;;;;;24.20;11.25;;;;;;;36.21;54.58;97537.66;4959225;28;20050;-68
2023/06/20 02:46:41;;;;;;;22.35;10.40;;;;;;;36.58;53.82;97537.38;4960467;28;20065;-68
2023/06/20 02:49:15;;;;;;;23.02;11.20;;;;;;;36.72;52.73;97546.50;4930346;28;20406;-68
2023/06/20 02:52:02;;;;;;;25.60;11.73;;;;;;;36.47;53.69;97546.41;4917520;28;20109;-68
2023/06/20 02:55:01;;;;;;;25.70;11.25;;;;;;;36.77;53.76;97550.84;4919551;28;20051;-68
2023/06/20 02:57:32;;;;;;;27.20;12.07;;;;;;;36.52;53.17;97548.00;4957840;28;20065;-69
2023/06/20 03:00:09;;;;;;;24.75;11.70;;;;;;;36.48;52.85;97549.97;4943390;28;20058;-69
2023/06/20 03:02:55;;;;;;;25.95;11.30;;;;;;;36.69;52.89;97535.47;4926480;28;20137;-69
2023/06/20 03:05:30;;;;;;;27.92;11.20;;;;;;;36.52;52.33;97536.94;4938092;28;20201;-70
2023/06/20 03:08:00;;;;;;;27.73;11.77;;;;;;;36.81;51.79;97541.38;4932429;28;20061;-69
2023/06/20 03:10:32;;;;;;;28.42;12.27;;;;;;;37.10;52.25;97544.16;4943448;28;22198;-70
2023/06/20 03:13:05;;;;;;;30.75;11.75;;;;;;;37.12;52.82;97542.59;4946034;28;20399;-70
2023/06/20 03:15:36;;;;;;;24.63;11.38;;;;;;;36.79;51.38;97548.47;4961355;28;20054;-69
2023/06/20 03:18:05;;;;;;;29.88;11.85;;;;;;;36.85;51.83;97550.44;4947303;28;20054;-69
2023/06/20 03:20:35;;;;;;;23.10;11.70;;;;;;;36.57;51.11;97544.84;4941175;28;20057;-70
2023/06/20 03:23:04;;;;;;;25.90;11.48;;;;;;;36.67;53.35;97546.88;4932375;28;20078;-70
2023/06/20 03:25:33;;;;;;;25.52;11.48;;;;;;;36.58;54.18;97545.66;4947533;28;20134;-70
2023/06/20 03:28:03;;;;;;;31.58;12.50;;;;;;;36.24;51.15;97550.69;4948151;28;20495;-70
2023/06/20 03:30:35;;;;;;;27.95;11.93;;;;;;;36.42;51.19;97546.81;4942528;28;20054;-70
2023/06/20 03:33:05;;;;;;;30.90;12.00;;;;;;;36.50;52.86;97549.56;4941386;28;20042;-69
2023/06/20 03:35:36;;;;;;;27.38;10.85;;;;;;;36.67;54.65;97552.41;4926230;28;20058;-68
2023/06/20 03:38:05;;;;;;;29.75;11.98;;;;;;;36.69;50.31;97546.50;4908650;28;20442;-70
2023/06/20 03:40:35;;;;;;;28.15;12.05;;;;;;;36.92;52.71;97538.59;4951554;28;20150;-70
2023/06/20 03:43:04;;;;;;;24.20;11.10;;;;;;;36.89;49.82;97542.16;4926084;28;20055;-69
2023/06/20 03:45:33;;;;;;;27.70;11.45;;;;;;;37.04;49.69;97552.03;4942281;28;20043;-70
2023/06/20 03:48:04;;;;;;;28.52;10.70;;;;;;;37.07;50.00;97545.75;4931030;28;20364;-70
2023/06/20 03:50:34;;;;;;;25.25;11.48;;;;;;;37.19;51.80;97553.63;4941787;28;20062;-69
2023/06/20 03:53:05;;;;;;;29.10;10.52;;;;;;;37.33;50.63;97545.31;4948028;28;20062;-69
2023/06/20 03:55:35;;;;;;;25.88;11.10;;;;;;;37.49;49.94;97549.66;4942433;28;20053;-67
2023/06/20 03:58:04;;;;;;;26.23;10.35;;;;;;;37.48;49.64;97554.38;4931684;28;20707;-67
2023/06/20 04:00:35;;;;;;;31.90;11.55;;;;;;;37.43;50.70;97548.47;4942511;28;20070;-68
2023/06/20 04:03:04;;;;;;;29.08;11.10;;;;;;;37.33;50.37;97556.38;4915109;28;20054;-67
2023/06/20 04:05:35;;;;;;;36.67;11.75;;;;;;;37.34;49.62;97554.41;4942956;28;20046;-66
2023/06/20 04:08:04;;;;;;;30.80;11.25;;;;;;;37.69;48.38;97550.81;4957943;28;20594;-68
2023/06/20 04:10:34;;;;;;;26.42;12.00;;;;;;;37.40;46.72;97550.03;4946976;28;20051;-68
2023/06/20 04:13:04;;;;;;;20.85;10.50;;;;;;;37.17;47.73;97542.19;4940325;28;20141;-67
2023/06/20 04:15:34;;;;;;;21.77;10.15;;;;;;;37.07;48.11;97542.97;4942439;28;20055;-68
2023/06/20 04:18:03;;;;;;;40.03;11.50;;;;;;;37.41;48.01;97540.56;4939525;28;20062;-69
2023/06/20 04:20:34;;;;;;;25.45;11.07;;;;;;;37.54;48.07;97550.03;4948564;28;20050;-69
2023/06/20 04:23:04;;;;;;;25.10;11.50;;;;;;;37.50;47.60;97545.69;4946332;28;20169;-69
2023/06/20 04:25:34;;;;;;;23.90;10.68;;;;;;;37.44;47.62;97541.75;4914786;28;20061;-69
2023/06/20 04:28:04;;;;;;;27.77;11.00;;;;;;;37.57;47.17;97546.50;4941134;28;20054;-69
2023/06/20 04:30:43;;;;;;;27.30;12.35;;;;;;;37.92;45.43;97539.28;4939588;28;20059;-69
2023/06/20 04:33:12;;;;;;;30.27;11.23;;;;;;;38.19;50.66;97541.19;4940563;28;20050;-69
2023/06/20 04:35:42;;;;;;;26.23;12.13;;;;;;;38.15;47.14;97537.63;4941435;28;20078;-69
2023/06/20 04:38:13;;;;;;;27.02;11.95;;;;;;;38.21;48.26;97544.31;4944610;28;21939;-69
2023/06/20 04:40:49;;;;;;;28.38;13.20;;;;;;;37.85;47.92;97544.81;4941910;28;20070;-68
2023/06/20 04:43:18;;;;;;;25.45;12.07;;;;;;;38.22;48.71;97545.91;4946629;28;20050;-68
2023/06/20 04:45:49;;;;;;;31.15;12.02;;;;;;;38.46;46.61;97546.19;4946296;28;20131;-68
2023/06/20 04:48:18;;;;;;;34.05;12.52;;;;;;;38.74;46.65;97540.44;4940740;28;20137;-68
2023/06/20 04:50:48;;;;;;;26.10;10.65;;;;;;;38.05;45.56;97544.00;4947172;28;20051;-68
2023/06/20 04:53:19;;;;;;;25.73;10.60;;;;;;;38.29;45.41;97549.78;4929937;28;20046;-67
2023/06/20 04:55:49;;;;;;;26.15;10.02;;;;;;;37.93;44.83;97547.16;4921432;28;20558;-67
2023/06/20 04:58:20;;;;;;;22.38;10.75;;;;;;;38.41;45.59;97546.59;4931833;28;20059;-67
2023/06/20 05:00:49;;;;;;;30.88;11.13;;;;;;;38.78;45.15;97545.97;4932816;28;20057;-67
2023/06/20 05:03:19;;;;;;;32.83;12.20;;;;;;;38.57;47.47;97552.44;4927997;28;20053;-67
2023/06/20 05:05:49;;;;;;;26.42;11.23;;;;;;;38.97;48.84;97549.00;4956866;28;20051;-67
2023/06/20 05:08:18;;;;;;;30.02;10.75;;;;;;;38.48;42.97;97552.09;4945824;28;20055;-67
2023/06/20 05:10:49;;;;;;;32.38;12.25;;;;;;;38.68;47.16;97546.84;4942063;28;20129;-68
2023/06/20 05:13:19;;;;;;;23.80;10.20;;;;;;;38.48;45.09;97552.09;4958051;28;20086;-67
2023/06/20 05:15:48;;;;;;;24.27;10.55;;;;;;;38.40;42.81;97543.03;4959073;28;20054;-67
2023/06/20 05:18:17;;;;;;;26.75;11.07;;;;;;;38.38;47.73;97541.84;4945909;28;21418;-68
2023/06/20 05:20:47;;;;;;;26.90;10.82;;;;;;;38.40;46.11;97551.34;4937968;28;20051;-70
2023/06/20 05:23:17;;;;;;;23.13;11.38;;;;;;;38.77;46.03;97545.16;4955512;28;20047;-71
2023/06/20 05:25:47;;;;;;;25.88;11.30;;;;;;;38.68;43.72;97538.53;4923818;28;20046;-68
2023/06/20 05:28:17;;;;;;;29.33;11.90;;;;;;;39.03;45.02;97539.09;4957032;28;20121;-68
2023/06/20 05:30:46;;;;;;;19.23;10.77;;;;;;;39.15;46.58;97532.25;4958960;28;20039;-67
2023/06/20 05:33:16;;;;;;;22.80;9.50;;;;;;;39.04;42.88;97535.09;4940035;28;20055;-67
2023/06/20 05:35:46;;;;;;;27.08;9.63;;;;;;;39.14;44.20;97530.66;4960659;28;20058;-68
2023/06/20 05:38:16;;;;;;;22.92;10.30;;;;;;;38.87;43.63;97527.72;4948801;28;20679;-66
2023/06/20 05:40:46;;;;;;;26.92;9.55;;;;;;;39.22;43.59;97534.16;4937042;28;20054;-67
2023/06/20 05:43:16;;;;;;;21.95;8.95;;;;;;;38.45;41.25;97531.56;4959292;28;20806;-68
2023/06/20 05:45:47;;;;;;;24.60;9.63;;;;;;;38.77;43.28;97525.03;4960199;28;20054;-68
2023/06/20 05:48:16;;;;;;;26.60;8.88;;;;;;;39.03;41.96;97524.44;4959350;28;20054;-68
2023/06/20 05:50:46;;;;;;;21.45;9.93;;;;;;;39.05;44.01;97516.50;4962239;28;20121;-67
2023/06/20 05:53:15;;;;;;;22.17;8.88;;;;;;;39.08;40.59;97519.22;4945066;28;20054;-67
2023/06/20 05:55:44;;;;;;;28.73;9.60;;;;;;;39.17;40.28;97518.00;4925831;28;20075;-68
2023/06/20 05:58:14;;;;;;;25.75;10.10;;;;;;;38.98;44.09;97522.09;4962008;28;20047;-68
2023/06/20 06:00:44;;;;;;;23.13;9.85;;;;;;;38.88;40.90;97520.22;4945841;28;20085;-67
2023/06/20 06:03:14;;;;;;;24.00;9.57;;;;;;;38.79;43.79;97514.31;4962232;28;20066;-67
2023/06/20 06:05:44;;;;;;;19.98;9.75;;;;;;;39.03;48.16;97519.69;4932767;28;20802;-68
2023/06/20 06:08:14;;;;;;;21.35;10.20;;;;;;;38.83;41.75;97512.31;4931907;28;20152;-65
2023/06/20 06:10:44;;;;;;;26.38;10.40;;;;;;;38.78;44.07;97507.19;4962574;28;20062;-67
2023/06/20 06:13:13;;;;;;;44.08;11.68;;;;;;;38.58;41.47;97510.53;4934444;28;20058;-66
2023/06/20 06:15:42;;;;;;;27.92;10.60;;;;;;;38.62;44.49;97507.72;4961755;28;20120;-66
2023/06/20 06:18:30;;;;;;;32.95;12.13;;;;;;;38.68;43.79;97514.41;4961296;28;20378;-66
2023/06/20 06:21:00;;;;;;;32.15;11.15;;;;;;;38.42;45.21;97512.16;4949354;28;20079;-67
2023/06/20 06:23:29;;;;;;;27.88;12.88;;;;;;;38.33;44.58;97509.09;4961628;28;20063;-67
2023/06/20 06:26:00;;;;;;;30.90;12.25;;;;;;;38.43;44.07;97508.25;4961527;28;20059;-66
2023/06/20 06:28:30;;;;;;;31.50;11.02;;;;;;;38.49;45.63;97507.44;4960109;28;20725;-66
2023/06/20 06:31:07;;;;;;;23.77;10.60;;;;;;;38.55;45.12;97502.25;4961087;28;20149;-68
2023/06/20 06:33:40;;;;;;;35.85;10.65;;;;;;;38.39;43.23;97510.22;4962008;28;20209;-67
2023/06/20 06:36:09;;;;;;;29.92;9.93;;;;;;;38.68;46.15;97508.88;4961727;28;20117;-69
2023/06/20 06:38:57;;;;;;;31.58;11.80;;;;;;;38.69;42.61;97504.09;4960550;28;20146;-69
2023/06/20 06:41:44;;;;;;;;;;;;;;;38.85;43.32;97504.38;4934460;28;20051;-68
2023/06/20 06:44:15;;;;;;;28.77;10.95;;;;;;;38.90;43.99;97504.78;4949035;28;19932;-67
2023/06/20 06:46:44;;;;;;;30.00;11.27;;;;;;;38.55;42.09;97502.25;4950611;28;20066;-67
2023/06/20 06:49:14;;;;;;;18.17;9.77;;;;;;;38.69;45.26;97493.81;4960555;28;20047;-68
2023/06/20 06:51:43;;;;;;;21.63;10.63;;;;;;;38.71;44.26;97496.97;4961929;28;20417;-68
2023/06/20 06:54:16;;;;;;;30.98;11.70;;;;;;;38.52;42.63;97498.31;4960603;28;20062;-65
2023/06/20 06:56:45;;;;;;;18.38;9.50;;;;;;;38.68;42.74;97497.81;4960390;28;20127;-70
2023/06/20 06:59:15;;;;;;;22.70;9.40;;;;;;;38.64;40.59;97491.47;4959937;28;20153;-67
2023/06/20 07:01:44;;;;;;;24.77;9.95;;;;;;;38.32;42.52;97486.16;4917549;28;20059;-67
2023/06/20 07:04:14;;;;;;;34.38;10.35;;;;;;;38.33;43.54;97482.19;4948876;28;20614;-68
2023/06/20 07:06:44;;;;;;;29.67;10.98;;;;;;;38.27;45.31;97483.03;4916617;28;20070;-65
2023/06/20 07:09:14;;;;;;;29.90;11.38;;;;;;;38.61;45.84;97484.78;4958217;28;20070;-68
2023/06/20 07:11:43;;;;;;;26.40;11.40;;;;;;;38.65;43.62;97477.25;4942680;28;20058;-69
2023/06/20 07:14:12;;;;;;;32.35;13.07;;;;;;;38.68;45.11;97475.66;4948440;28;20063;-69
2023/06/20 07:16:42;;;;;;;27.85;12.80;;;;;;;38.68;45.15;97469.34;4959869;28;20597;-70
2023/06/20 07:19:31;;;;;;;24.77;13.63;;;;;;;38.57;41.34;97477.72;4957777;28;20051;-68
2023/06/20 07:22:02;;;;;;;27.45;13.27;;;;;;;38.52;44.34;97467.06;4959622;28;20086;-66
2023/06/20 07:24:32;;;;;;;30.85;13.57;;;;;;;38.40;44.36;97464.75;4959940;28;20038;-67
2023/06/20 07:27:01;;;;;;;24.17;11.95;;;;;;;38.56;44.01;97465.84;4942265;28;20762;-67
2023/06/20 07:29:31;;;;;;;26.95;13.82;;;;;;;38.63;41.65;97460.28;4931986;28;20411;-67
2023/06/20 07:32:00;;;;;;;32.38;13.05;;;;;;;38.82;42.96;97461.66;4959152;28;20055;-68
2023/06/20 07:34:29;;;;;;;28.92;11.30;;;;;;;38.64;42.98;97444.44;4958164;28;20046;-67
2023/06/20 07:36:58;;;;;;;26.25;11.13;;;;;;;38.49;46.72;97457.59;4960176;28;20042;-67
2023/06/20 07:39:28;;;;;;;27.95;11.95;;;;;;;38.29;45.53;97444.66;4958631;28;20050;-66
2023/06/20 07:41:57;;;;;;;32.88;12.55;;;;;;;38.16;48.02;97450.69;4960342;28;20050;-67
2023/06/20 07:44:27;;;;;;;32.42;11.57;;;;;;;38.25;44.51;97441.94;4959455;28;20088;-67
2023/06/20 07:46:56;;;;;;;20.52;11.13;;;;;;;38.43;44.63;97439.06;4942282;28;20042;-68
2023/06/20 07:49:25;;;;;;;33.92;13.10;;;;;;;38.44;47.17;97433.13;4945274;28;20065;-67
2023/06/20 07:51:57;;;;;;;32.55;11.60;;;;;;;38.49;47.14;97431.91;4940421;28;20503;-68
2023/06/20 07:54:27;;;;;;;30.38;12.90;;;;;;;38.35;43.04;97432.78;4939519;28;20051;-68
2023/06/20 07:56:58;;;;;;;22.90;12.15;;;;;;;38.48;47.30;97428.34;4939062;28;20047;-67
2023/06/20 07:59:28;;;;;;;27.60;12.93;;;;;;;38.49;46.50;97429.16;4935318;28;20062;-67
2023/06/20 08:01:57;;;;;;;33.13;12.57;;;;;;;38.37;41.55;97419.34;4940368;28;20067;-67
2023/06/20 08:04:27;;;;;;;30.58;14.60;;;;;;;38.49;44.11;97415.31;4923277;28;20170;-67
2023/06/20 08:06:56;;;;;;;29.65;12.70;;;;;;;38.70;43.24;97422.63;4938757;28;20055;-67
2023/06/20 08:09:25;;;;;;;26.58;15.85;;;;;;;38.52;40.44;97415.28;4939618;28;20500;-68
2023/06/20 08:11:55;;;;;;;23.48;13.23;;;;;;;38.61;42.13;97406.50;4939984;28;20134;-68
2023/06/20 08:14:24;;;;;;;25.00;14.15;;;;;;;38.74;46.21;97412.31;4939397;28;20439;-69
2023/06/20 08:16:53;;;;;;;26.50;13.95;;;;;;;38.67;45.80;97407.66;4943277;28;20628;-68
2023/06/20 08:19:23;;;;;;;28.13;16.63;;;;;;;38.39;42.14;97396.78;4937580;28;20522;-68
2023/06/20 08:21:52;;;;;;;30.80;14.60;;;;;;;38.32;43.54;97391.31;4939782;28;20047;-70
2023/06/20 08:24:21;;;;;;;23.88;13.18;;;;;;;38.43;43.04;97390.03;4939883;28;20074;-70
2023/06/20 08:26:50;;;;;;;29.23;15.13;;;;;;;38.60;46.03;97389.09;4937671;28;20160;-67
2023/06/20 08:29:20;;;;;;;36.60;12.98;;;;;;;38.63;43.99;97393.84;4937392;28;20054;-67
2023/06/20 08:31:49;;;;;;;25.52;12.75;;;;;;;38.59;43.06;97384.00;4939200;28;20467;-68
2023/06/20 08:34:19;;;;;;;23.95;12.93;;;;;;;38.45;43.28;97382.13;4938421;28;20090;-69
2023/06/20 08:36:50;;;;;;;26.55;12.40;;;;;;;38.46;42.87;97377.38;4939946;28;20158;-69
2023/06/20 08:39:21;;;;;;;26.40;12.77;;;;;;;38.59;42.68;97378.47;4953951;28;20066;-67
2023/06/20 08:41:51;;;;;;;21.40;11.55;;;;;;;38.54;43.04;97374.16;4939805;28;20059;-67
2023/06/20 08:44:21;;;;;;;20.67;10.95;;;;;;;38.48;41.83;97361.94;4926855;28;20058;-67
2023/06/20 08:46:56;;;;;;;27.77;12.48;;;;;;;38.37;43.30;97361.22;4939601;28;20126;-68
2023/06/20 08:49:26;;;;;;;24.85;11.48;;;;;;;38.33;42.69;97359.69;4956460;28;20059;-67
2023/06/20 08:51:59;;;;;;;30.88;11.18;;;;;;;38.17;41.70;97352.69;4957071;28;20047;-67
2023/06/20 08:54:36;;;;;;;22.15;10.10;;;;;;;38.31;41.63;97359.28;4958214;28;20050;-66
2023/06/20 08:57:06;;;;;;;27.13;9.45;;;;;;;38.35;39.80;97346.22;4922774;28;20046;-65
2023/06/20 08:59:37;;;;;;;26.90;9.63;;;;;;;38.45;40.67;97351.69;4940968;28;20059;-66
2023/06/20 09:02:08;;;;;;;22.95;10.55;;;;;;;38.38;39.52;97345.38;4957456;28;20662;-67
2023/06/20 09:04:37;;;;;;;22.23;9.45;;;;;;;38.44;40.18;97341.81;4958371;28;20054;-67
2023/06/20 09:07:21;;;;;;;19.00;9.25;;;;;;;38.41;37.72;97333.53;4930847;28;20050;-66
2023/06/20 09:09:51;;;;;;;24.42;9.27;;;;;;;38.46;38.72;97336.66;4944589;28;20130;-67
2023/06/20 09:12:20;;;;;;;19.42;8.60;;;;;;;38.41;38.76;97319.69;4931347;28;20100;-67
2023/06/20 09:14:52;;;;;;;26.73;8.35;;;;;;;38.38;39.08;97328.78;4941406;28;20050;-67
2023/06/20 09:17:23;;;;;;;16.95;8.57;;;;;;;38.42;40.09;97332.31;4944067;28;20060;-67
2023/06/20 09:19:53;;;;;;;17.02;8.50;;;;;;;38.39;37.24;97327.59;4958401;28;20383;-67
2023/06/20 09:22:25;;;;;;;18.00;8.23;;;;;;;38.37;39.53;97330.00;4941147;28;20065;-67
2023/06/20 09:24:55;;;;;;;30.05;8.70;;;;;;;38.31;37.48;97323.34;4958260;28;20069;-67
2023/06/20 09:27:24;;;;;;;14.40;7.40;;;;;;;38.31;37.82;97321.34;4957178;28;20058;-68
2023/06/20 09:30:00;;;;;;;15.38;6.70;;;;;;;38.32;37.70;97313.84;4958006;28;20084;-67
2023/06/20 09:32:36;;;;;;;14.02;6.45;;;;;;;38.38;38.27;97310.22;4958206;28;20066;-68
2023/06/20 09:35:08;;;;;;;14.63;6.20;;;;;;;38.39;36.73;97306.25;4941045;28;20050;-67
2023/06/20 09:37:42;;;;;;;19.92;6.57;;;;;;;38.41;37.48;97306.66;4942300;28;20066;-67
2023/06/20 09:40:17;;;;;;;12.32;5.60;;;;;;;38.46;36.49;97303.44;4941288;28;20357;-68
2023/06/20 09:42:47;;;;;;;8.40;4.88;;;;;;;38.41;35.80;97303.88;4958867;28;20443;-67
2023/06/20 09:45:18;;;;;;;11.07;4.60;;;;;;;38.42;35.29;97301.88;4956628;28;20050;-67
2023/06/20 09:47:49;;;;;;;12.40;5.30;;;;;;;38.45;36.64;97303.88;4947270;28;20173;-67
2023/06/20 09:50:21;;;;;;;12.23;5.97;;;;;;;38.38;35.06;97296.38;4937494;28;20649;-67
2023/06/20 09:53:27;;;;;;;8.25;4.50;;;;;;;38.27;34.36;97298.47;4954619;28;20074;-67
2023/06/20 09:55:58;;;;;;;13.83;3.97;;;;;;;38.30;33.48;97285.78;4931590;28;20089;-67
2023/06/20 09:58:30;;;;;;;9.05;3.97;;;;;;;38.32;34.68;97291.72;4936620;28;20105;-67
2023/06/20 10:01:02;;;;;;;11.33;4.13;;;;;;;38.31;33.88;97288.16;4955373;28;20063;-67
2023/06/20 10:03:32;;;;;;;7.38;3.40;;;;;;;38.27;32.87;97281.09;4937856;28;20403;-68
2023/06/20 10:06:04;;;;;;;8.18;3.40;;;;;;;38.23;30.76;97278.34;4912549;28;20051;-68
2023/06/20 10:08:34;;;;;;;7.30;3.45;;;;;;;38.16;31.59;97278.41;4954872;28;20055;-68
2023/06/20 10:11:03;;;;;;;12.73;4.32;;;;;;;38.09;32.23;97279.25;4955261;28;20063;-68
2023/06/20 10:13:33;;;;;;;10.82;4.38;;;;;;;38.11;33.71;97276.06;4955592;28;20051;-68
2023/06/20 10:16:04;;;;;;;13.65;4.57;;;;;;;38.15;34.29;97276.84;4943813;28;20046;-68
2023/06/20 10:18:35;;;;;;;10.82;5.30;;;;;;;38.10;34.92;97269.78;4954566;28;20133;-67
2023/06/20 10:21:29;;;;;;;11.20;4.90;;;;;;;38.05;33.41;97263.91;4958871;28;20570;-67
2023/06/20 10:23:59;;;;;;;12.93;5.90;;;;;;;38.03;36.00;97264.28;4925863;28;20157;-67
2023/06/20 10:26:33;;;;;;;22.95;6.85;;;;;;;38.04;36.34;97267.84;4938849;28;20981;-67
2023/06/20 10:29:03;;;;;;;18.23;8.10;;;;;;;38.06;35.59;97255.16;4940866;28;20901;-67
2023/06/20 10:32:04;;;;;;;20.27;9.10;;;;;;;38.09;37.18;97253.59;4948227;28;20077;-67
2023/06/20 10:34:40;;;;;;;16.90;8.30;;;;;;;38.05;37.50;97250.06;4956778;28;20063;-66
2023/06/20 10:37:27;;;;;;;24.90;8.77;;;;;;;37.96;37.72;97242.22;4930675;28;20491;-67
2023/06/20 10:39:58;;;;;;;15.85;7.82;;;;;;;37.93;36.87;97237.47;4956896;28;20047;-66
2023/06/20 10:42:32;;;;;;;23.05;8.80;;;;;;;37.91;37.38;97239.88;4956503;28;20070;-66
2023/06/20 10:45:22;;;;;;;17.58;8.50;;;;;;;37.97;38.41;97241.06;4956313;28;20133;-67
2023/06/20 10:47:53;;;;;;;14.73;8.50;;;;;;;37.98;36.57;97233.53;4956152;28;20074;-67
2023/06/20 10:50:23;;;;;;;21.90;9.52;;;;;;;38.03;36.81;97225.56;4957318;28;20078;-67
2023/06/20 10:52:54;;;;;;;21.35;7.95;;;;;;;38.00;38.26;97228.38;4956253;28;20054;-67
2023/06/20 10:55:23;;;;;;;21.30;9.18;;;;;;;37.96;38.80;97231.16;4956854;28;20234;-68
2023/06/20 10:57:53;;;;;;;16.67;9.05;;;;;;;37.93;39.23;97226.41;4957144;28;20153;-68
2023/06/20 11:00:24;;;;;;;19.50;9.98;;;;;;;37.93;39.73;97223.66;4957398;28;20065;-68
2023/06/20 11:02:56;;;;;;;27.88;10.88;;;;;;;37.90;38.77;97218.97;4957296;28;20105;-68
2023/06/20 11:05:29;;;;;;;17.13;11.27;;;;;;;37.87;40.55;97222.53;4956240;28;21748;-66
2023/06/20 11:08:01;;;;;;;19.80;9.93;;;;;;;37.83;39.69;97215.47;4956847;28;20286;-67
2023/06/20 11:10:40;;;;;;;26.40;10.83;;;;;;;37.80;40.02;97214.28;4955058;28;20050;-68
2023/06/20 11:13:10;;;;;;;23.85;10.70;;;;;;;37.74;40.76;97215.94;4954873;28;20059;-65
2023/06/20 11:15:39;;;;;;;25.60;11.13;;;;;;;37.68;41.63;97212.81;4940098;28;20128;-67
2023/06/20 11:18:10;;;;;;;27.23;11.07;;;;;;;37.72;41.48;97215.56;4957002;28;20698;-67
2023/06/20 11:20:42;;;;;;;17.33;10.40;;;;;;;37.66;41.61;97204.16;4956827;28;20508;-68
2023/06/20 11:23:13;;;;;;;18.13;10.43;;;;;;;37.62;42.90;97203.38;4938971;28;20054;-68
2023/06/20 11:25:44;;;;;;;17.90;10.45;;;;;;;37.55;41.18;97194.38;4937606;28;20610;-65
2023/06/20 11:28:16;;;;;;;27.08;11.93;;;;;;;37.53;42.31;97192.00;4951505;28;20050;-68
2023/06/20 11:30:50;;;;;;;21.40;10.52;;;;;;;37.47;42.15;97190.06;4904663;28;20046;-67
2023/06/20 11:33:21;;;;;;;21.02;11.02;;;;;;;37.40;42.80;97188.13;4914717;28;20578;-68
2023/06/20 11:35:53;;;;;;;24.35;11.23;;;;;;;37.40;41.80;97187.38;4912720;28;20061;-67
2023/06/20 11:38:29;;;;;;;27.42;10.90;;;;;;;37.43;41.05;97186.56;4954342;28;20050;-69
2023/06/20 11:41:07;;;;;;;26.10;10.27;;;;;;;37.45;41.01;97181.38;4947082;28;20054;-68
2023/06/20 11:43:39;;;;;;;23.38;9.95;;;;;;;37.43;43.23;97176.28;4957878;28;20054;-68